Time;durP1;ratioP1;P1;durP2;ratioP2;P2;SDS_P1;SDS_P2;PMS_P1;PMS_P2;Temp;Humidity;BMP_temperature;BMP_pressure;BME280_temperature;BME280_humidity;BME280_pressure;Samples;Min_cycle;Max_cycle;Signal;HPM_P1;HPM_P2
2021/06/24 00:01:04;;;;;;;9.03;8.13;;;18.00;99.90;;;;;;4934978;29;20616;-79
2021/06/24 00:03:31;;;;;;;8.10;7.30;;;18.00;99.90;;;;;;5035655;28;20573;-80
2021/06/24 00:05:58;;;;;;;9.33;7.23;;;18.00;99.90;;;;;;4969377;29;20627;-77
2021/06/24 00:08:24;;;;;;;8.00;7.30;;;18.00;99.90;;;;;;4964956;28;20586;-78
2021/06/24 00:10:52;;;;;;;8.70;7.40;;;18.00;99.90;;;;;;4945188;28;20638;-78
2021/06/24 00:13:19;;;;;;;8.33;7.53;;;18.00;99.90;;;;;;4924583;28;20599;-79
2021/06/24 00:15:45;;;;;;;8.13;7.33;;;18.00;99.90;;;;;;5009598;28;20616;-78
2021/06/24 00:18:11;;;;;;;7.10;6.50;;;18.00;99.90;;;;;;4958722;28;20683;-78
2021/06/24 00:20:39;;;;;;;9.30;8.30;;;17.90;99.90;;;;;;4958991;29;20983;-79
2021/06/24 00:23:08;;;;;;;7.40;6.70;;;17.90;99.90;;;;;;4958420;29;20575;-79
2021/06/24 00:25:34;;;;;;;8.37;7.60;;;17.90;99.90;;;;;;5007949;28;20714;-78
2021/06/24 00:28:00;;;;;;;7.63;7.03;;;17.90;99.90;;;;;;4957130;29;20986;-78
2021/06/24 00:30:26;;;;;;;7.87;7.17;;;17.90;99.90;;;;;;4938746;29;20683;-78
2021/06/24 00:32:51;;;;;;;7.60;6.90;;;17.90;99.90;;;;;;4937849;28;20665;-79
2021/06/24 00:35:17;;;;;;;8.73;7.93;;;17.90;99.90;;;;;;4954134;29;20755;-79
2021/06/24 00:37:44;;;;;;;7.70;7.00;;;17.90;99.90;;;;;;4953892;29;20568;-80
2021/06/24 00:40:11;;;;;;;7.60;6.90;;;17.90;99.90;;;;;;4953364;29;20212;-79
2021/06/24 00:42:38;;;;;;;6.80;6.20;;;17.90;99.90;;;;;;5021573;28;20583;-79
2021/06/24 00:45:07;;;;;;;6.63;6.03;;;17.90;99.90;;;;;;4955255;29;20603;-80
2021/06/24 00:47:33;;;;;;;7.10;6.10;;;17.90;99.90;;;;;;4958186;29;20580;-78
2021/06/24 00:49:59;;;;;;;8.27;7.50;;;17.90;99.90;;;;;;4937538;28;20690;-78
2021/06/24 00:52:25;;;;;;;8.40;7.17;;;17.90;99.90;;;;;;4937198;29;20618;-78
2021/06/24 00:54:51;;;;;;;7.17;6.47;;;17.90;99.90;;;;;;4938104;28;20630;-79
2021/06/24 00:57:19;;;;;;;7.40;6.70;;;17.90;99.90;;;;;;4921673;29;20226;-79
2021/06/24 00:59:46;;;;;;;7.13;6.43;;;17.90;99.90;;;;;;4922278;28;20675;-78
2021/06/24 01:02:11;;;;;;;8.00;6.30;;;17.90;99.90;;;;;;4955155;29;21242;-78
2021/06/24 01:04:37;;;;;;;8.20;7.37;;;17.90;99.90;;;;;;4953888;28;20195;-79
2021/06/24 01:07:04;;;;;;;7.53;6.53;;;17.90;99.90;;;;;;4936917;29;20198;-79
2021/06/24 01:09:34;;;;;;;10.40;5.27;;;17.90;99.90;;;;;;4938151;29;20579;-78
2021/06/24 01:12:07;;;;;;;8.77;6.07;;;18.00;99.90;;;;;;5023453;28;20592;-78
2021/06/24 01:14:34;;;;;;;6.40;5.63;;;18.00;99.90;;;;;;5020859;28;20586;-78
2021/06/24 01:16:59;;;;;;;8.37;5.70;;;18.10;99.90;;;;;;5037643;28;20642;-78
2021/06/24 01:23:15;;;;;;;5.70;5.10;;;18.20;99.90;;;;;;4960725;28;20627;-79
2021/06/24 01:26:13;;;;;;;6.07;5.37;;;18.30;99.90;;;;;;5008552;28;20631;-79
2021/06/24 01:29:20;;;;;;;5.73;5.30;;;18.30;99.90;;;;;;4959361;28;20600;-78
2021/06/24 01:31:47;;;;;;;7.67;5.70;;;18.40;99.90;;;;;;5029812;28;20588;-78
2021/06/24 01:34:14;;;;;;;5.70;4.90;;;18.40;99.90;;;;;;5031782;28;20615;-79
2021/06/24 01:36:40;;;;;;;6.23;5.53;;;18.40;99.90;;;;;;5012878;28;21078;-78
2021/06/24 01:39:12;;;;;;;5.20;4.80;;;18.40;99.90;;;;;;5028495;28;20655;-79
2021/06/24 01:41:38;;;;;;;7.23;5.47;;;18.50;99.90;;;;;;5017039;28;20631;-79
2021/06/24 01:44:09;;;;;;;6.10;5.10;;;18.50;99.90;;;;;;5027236;28;20588;-79
2021/06/24 01:46:36;;;;;;;4.47;4.07;;;18.60;99.90;;;;;;5023814;28;20611;-79
2021/06/24 01:49:01;;;;;;;6.53;5.60;;;18.60;99.90;;;;;;5007636;28;20177;-78
2021/06/24 01:51:30;;;;;;;5.23;4.73;;;18.50;99.90;;;;;;4956920;29;20588;-79
2021/06/24 01:53:56;;;;;;;7.93;5.17;;;18.50;99.90;;;;;;4939437;29;20614;-78
2021/06/24 01:56:23;;;;;;;5.20;4.80;;;18.50;99.90;;;;;;4962748;28;20620;-78
2021/06/24 01:58:52;;;;;;;8.23;6.03;;;18.50;99.90;;;;;;5008550;28;20569;-78
2021/06/24 02:01:36;;;;;;;6.03;5.43;;;18.60;99.90;;;;;;5036817;28;20701;-78
2021/06/24 02:04:13;;;;;;;5.83;4.80;;;18.60;99.90;;;;;;5029341;28;20544;-77
2021/06/24 02:06:40;;;;;;;5.50;5.03;;;18.60;99.90;;;;;;5035093;28;20619;-78
2021/06/24 02:09:17;;;;;;;7.43;5.40;;;18.60;99.90;;;;;;5034451;28;20533;-78
2021/06/24 02:11:54;;;;;;;4.83;4.33;;;18.70;99.90;;;;;;4967475;28;20556;-77
2021/06/24 02:14:19;;;;;;;5.20;3.83;;;18.70;99.90;;;;;;5035050;28;20675;-78
2021/06/24 02:16:45;;;;;;;5.90;5.30;;;18.70;99.90;;;;;;5032074;28;20572;-79
2021/06/24 02:19:11;;;;;;;6.40;5.40;;;18.80;99.90;;;;;;5031333;28;20619;-79
2021/06/24 02:22:10;;;;;;;5.33;4.80;;;18.80;99.90;;;;;;4963243;28;20223;-78
2021/06/24 02:24:44;;;;;;;6.03;5.53;;;18.80;99.90;;;;;;5029234;28;20651;-79
2021/06/24 02:27:12;;;;;;;5.33;4.80;;;18.80;99.90;;;;;;5028907;28;20580;-80
2021/06/24 02:30:16;;;;;;;6.47;3.80;;;18.80;99.90;;;;;;4983112;28;20594;-78
2021/06/24 02:32:43;;;;;;;7.67;5.37;;;18.80;99.90;;;;;;4981234;28;20680;-79
2021/06/24 02:35:14;;;;;;;5.23;4.83;;;18.80;99.90;;;;;;4976166;28;20616;-79
2021/06/24 02:37:52;;;;;;;4.87;4.47;;;18.80;99.90;;;;;;5033543;28;20608;-79
2021/06/24 02:40:35;;;;;;;5.83;5.30;;;18.80;99.90;;;;;;4967949;28;20606;-80
2021/06/24 02:43:02;;;;;;;5.60;4.67;;;18.80;99.90;;;;;;5036299;28;20611;-79
2021/06/24 02:45:36;;;;;;;5.47;4.90;;;18.80;99.90;;;;;;5033447;28;20631;-80
2021/06/24 02:48:02;;;;;;;5.80;5.30;;;18.80;99.90;;;;;;5018241;28;20646;-80
2021/06/24 02:50:35;;;;;;;4.03;3.70;;;18.80;99.90;;;;;;5036891;28;20157;-80
2021/06/24 02:53:08;;;;;;;9.37;5.63;;;18.80;99.90;;;;;;4965097;28;20663;-79
2021/06/24 02:55:35;;;;;;;5.80;5.30;;;18.80;99.90;;;;;;5023341;28;20608;-81
2021/06/24 02:58:02;;;;;;;6.07;5.47;;;18.80;99.90;;;;;;4930777;28;20601;-82
2021/06/24 03:00:47;;;;;;;7.80;7.00;;;18.80;99.90;;;;;;4932468;29;21168;-81
2021/06/24 03:03:32;;;;;;;5.60;5.10;;;18.90;99.90;;;;;;4932372;29;20577;-82
2021/06/24 03:06:17;;;;;;;9.73;5.73;;;18.90;99.90;;;;;;4914804;28;20605;-80
2021/06/24 03:08:43;;;;;;;4.97;4.53;;;18.90;99.90;;;;;;4915399;28;20668;-82
2021/06/24 03:11:10;;;;;;;7.97;5.63;;;18.90;99.90;;;;;;4899650;29;21144;-81
2021/06/24 03:13:45;;;;;;;7.70;5.97;;;19.00;99.90;;;;;;5009224;28;20600;-82
2021/06/24 03:16:11;;;;;;;6.60;6.00;;;19.00;99.90;;;;;;5016714;28;20623;-81
2021/06/24 03:18:37;;;;;;;6.90;6.20;;;19.00;99.90;;;;;;4950658;28;20580;-82
2021/06/24 03:21:07;;;;;;;7.60;6.53;;;19.00;99.90;;;;;;5016725;28;20632;-81
2021/06/24 03:23:33;;;;;;;5.97;5.30;;;19.00;99.90;;;;;;5016768;28;21178;-80
2021/06/24 03:26:00;;;;;;;6.20;5.70;;;19.00;99.90;;;;;;4950384;28;20653;-81
2021/06/24 03:28:27;;;;;;;5.33;4.83;;;19.00;99.90;;;;;;5016886;28;20668;-81
2021/06/24 03:31:01;;;;;;;6.50;5.90;;;19.00;99.90;;;;;;5018331;28;20580;-82
2021/06/24 03:33:29;;;;;;;8.77;5.93;;;19.00;99.90;;;;;;5000283;28;20603;-82
2021/06/24 03:35:56;;;;;;;7.07;6.07;;;19.00;99.90;;;;;;5016654;28;20702;-82
2021/06/24 03:38:24;;;;;;;6.93;6.27;;;19.00;99.90;;;;;;5017107;28;20588;-81
2021/06/24 03:40:53;;;;;;;7.13;6.53;;;19.00;99.90;;;;;;5014963;28;20631;-80
2021/06/24 03:43:19;;;;;;;6.33;5.73;;;19.00;99.90;;;;;;4950471;28;20574;-81
2021/06/24 03:45:45;;;;;;;7.93;5.70;;;19.00;99.90;;;;;;5016704;28;20616;-81
2021/06/24 03:48:11;;;;;;;7.57;6.97;;;19.00;99.90;;;;;;5016866;28;20580;-80
2021/06/24 03:50:38;;;;;;;9.23;7.10;;;19.10;99.90;;;;;;5024253;28;21008;-81
2021/06/24 03:53:04;;;;;;;7.07;6.57;;;19.10;99.90;;;;;;5020609;28;20607;-81
2021/06/24 03:55:35;;;;;;;8.23;7.27;;;19.10;99.90;;;;;;5003754;28;20620;-82
2021/06/24 03:58:05;;;;;;;7.03;6.33;;;19.10;99.90;;;;;;5020304;28;20580;-81
2021/06/24 04:00:34;;;;;;;7.53;6.83;;;19.10;99.90;;;;;;5004441;28;20631;-81
2021/06/24 04:03:09;;;;;;;8.70;6.60;;;19.10;99.90;;;;;;5004036;28;20682;-81
2021/06/24 04:05:50;;;;;;;7.10;6.43;;;19.10;99.90;;;;;;5003476;28;20624;-81
2021/06/24 04:08:16;;;;;;;6.17;5.57;;;19.10;99.90;;;;;;5003367;28;20595;-81
2021/06/24 04:10:42;;;;;;;6.80;6.10;;;19.10;99.90;;;;;;5020243;28;20633;-82
2021/06/24 04:13:08;;;;;;;12.40;6.73;;;19.20;99.90;;;;;;5017031;28;20684;-77
2021/06/24 04:15:35;;;;;;;7.43;6.73;;;19.20;99.90;;;;;;4999883;28;20284;-76
2021/06/24 04:18:05;;;;;;;7.00;6.50;;;19.20;99.90;;;;;;5000245;28;20592;-76
2021/06/24 04:20:35;;;;;;;7.47;6.70;;;19.20;99.90;;;;;;4934555;28;20620;-76
2021/06/24 04:23:06;;;;;;;6.53;5.93;;;19.20;99.90;;;;;;4998231;28;20573;-76
2021/06/24 04:25:49;;;;;;;6.50;5.97;;;19.30;99.90;;;;;;5003220;28;20736;-76
2021/06/24 04:28:16;;;;;;;7.60;6.90;;;19.30;99.90;;;;;;4935637;28;20638;-76
2021/06/24 04:30:58;;;;;;;6.80;6.10;;;19.30;99.90;;;;;;5000357;28;20587;-77
2021/06/24 04:33:24;;;;;;;9.37;7.80;;;19.40;99.90;;;;;;4934193;28;20584;-76
2021/06/24 04:36:13;;;;;;;6.73;6.13;;;19.40;99.90;;;;;;4975327;28;20715;-76
2021/06/24 04:38:39;;;;;;;7.43;6.57;;;19.40;99.90;;;;;;4951731;28;20591;-76
2021/06/24 04:41:06;;;;;;;9.83;7.90;;;19.50;99.90;;;;;;4936042;28;20636;-76
2021/06/24 04:43:52;;;;;;;7.07;6.37;;;19.50;99.90;;;;;;4920148;28;20612;-76
2021/06/24 04:46:19;;;;;;;7.50;6.57;;;19.50;99.90;;;;;;4935791;29;20615;-75
2021/06/24 04:48:45;;;;;;;6.43;5.83;;;19.50;99.90;;;;;;4951665;28;20576;-76
2021/06/24 04:51:29;;;;;;;5.37;4.87;;;19.50;99.90;;;;;;4953075;29;20576;-76
2021/06/24 04:53:55;;;;;;;7.23;6.47;;;19.50;99.90;;;;;;4951612;28;20584;-76
2021/06/24 04:56:24;;;;;;;6.63;6.10;;;19.60;99.90;;;;;;4951690;29;20977;-76
2021/06/24 04:58:50;;;;;;;10.10;6.33;;;19.60;99.90;;;;;;4953020;29;20576;-77
2021/06/24 05:01:34;;;;;;;8.07;6.90;;;19.60;99.90;;;;;;4953422;28;20208;-76
2021/06/24 05:04:36;;;;;;;7.00;6.27;;;19.70;99.90;;;;;;5034008;28;20734;-76
2021/06/24 05:07:06;;;;;;;6.67;6.17;;;19.70;99.90;;;;;;4969255;28;20710;-76
2021/06/24 05:09:33;;;;;;;8.00;7.07;;;19.70;99.90;;;;;;4952671;28;20180;-75
2021/06/24 05:11:59;;;;;;;7.40;6.77;;;19.70;99.90;;;;;;4952806;29;20622;-77
2021/06/24 05:14:25;;;;;;;8.60;7.70;;;19.80;99.90;;;;;;4951398;28;21031;-75
2021/06/24 05:16:51;;;;;;;8.17;6.40;;;19.80;99.90;;;;;;4919738;28;20552;-75
2021/06/24 05:19:16;;;;;;;7.03;6.50;;;19.90;99.90;;;;;;4935579;28;20173;-75
2021/06/24 05:21:42;;;;;;;7.83;6.87;;;20.00;99.90;;;;;;4952637;29;20631;-75
2021/06/24 05:24:09;;;;;;;7.83;6.83;;;20.00;99.90;;;;;;4935528;29;20199;-75
2021/06/24 05:26:36;;;;;;;7.20;6.57;;;20.00;99.90;;;;;;4952374;29;20718;-75
2021/06/24 05:29:02;;;;;;;7.70;7.00;;;20.10;99.90;;;;;;4952538;28;20576;-76
2021/06/24 05:31:27;;;;;;;8.00;7.23;;;20.10;99.90;;;;;;4952644;29;21166;-75
2021/06/24 05:33:53;;;;;;;9.33;7.23;;;20.20;99.90;;;;;;4935403;29;20607;-75
2021/06/24 05:36:19;;;;;;;9.23;8.10;;;20.20;99.90;;;;;;4952260;29;20610;-75
2021/06/24 05:38:45;;;;;;;7.33;6.73;;;20.20;99.90;;;;;;4952332;29;20193;-74
2021/06/24 05:41:10;;;;;;;8.90;7.60;;;20.20;99.90;;;;;;4956784;28;20250;-75
2021/06/24 05:43:36;;;;;;;7.33;6.70;;;20.20;99.90;;;;;;4935228;28;20234;-75
2021/06/24 05:46:02;;;;;;;7.07;6.47;;;20.20;99.90;;;;;;4950926;29;20188;-75
2021/06/24 05:48:28;;;;;;;7.73;7.00;;;20.20;99.90;;;;;;4952077;29;20169;-75
2021/06/24 05:50:53;;;;;;;9.60;7.03;;;20.20;99.90;;;;;;4935270;29;20168;-76
2021/06/24 05:53:19;;;;;;;7.83;7.13;;;20.20;99.90;;;;;;4951160;28;20180;-76
2021/06/24 05:55:48;;;;;;;8.90;7.13;;;20.20;99.90;;;;;;4952076;29;20328;-76
2021/06/24 05:58:16;;;;;;;8.60;6.27;;;20.20;99.90;;;;;;4952070;28;20180;-76
2021/06/24 06:00:42;;;;;;;9.00;8.10;;;20.20;99.90;;;;;;4950827;29;20631;-76
2021/06/24 06:03:11;;;;;;;8.63;7.77;;;20.30;99.90;;;;;;4952086;29;20941;-77
2021/06/24 06:05:37;;;;;;;10.33;7.53;;;20.20;99.90;;;;;;4950592;29;20647;-77
2021/06/24 06:08:04;;;;;;;9.40;8.50;;;20.30;99.90;;;;;;4952087;29;20580;-83
2021/06/24 06:10:35;;;;;;;8.83;7.93;;;20.30;99.90;;;;;;4952872;28;20580;-82
2021/06/24 06:13:02;;;;;;;8.10;7.37;;;20.30;99.90;;;;;;4951489;29;20599;-82
2021/06/24 06:15:28;;;;;;;9.70;8.27;;;20.30;99.90;;;;;;4952224;28;20634;-82
2021/06/24 06:17:54;;;;;;;8.47;7.20;;;20.30;99.90;;;;;;4957200;28;20615;-82
2021/06/24 06:20:20;;;;;;;10.07;8.63;;;20.30;99.90;;;;;;4951144;28;20172;-82
2021/06/24 06:22:49;;;;;;;8.13;7.33;;;20.40;99.90;;;;;;4919509;28;20571;-81
2021/06/24 06:25:15;;;;;;;8.80;8.00;;;20.40;99.90;;;;;;4934976;29;20619;-81
2021/06/24 06:27:41;;;;;;;9.90;8.70;;;20.50;99.90;;;;;;5018410;28;20168;-81
2021/06/24 06:30:07;;;;;;;8.57;7.30;;;20.50;99.90;;;;;;4954849;29;20165;-79
2021/06/24 06:32:33;;;;;;;10.07;8.17;;;20.50;99.90;;;;;;4964958;29;20568;-81
2021/06/24 06:34:59;;;;;;;8.47;7.77;;;20.50;99.90;;;;;;4947930;29;20603;-80
2021/06/24 06:37:25;;;;;;;10.50;9.50;;;20.50;99.90;;;;;;4944088;29;20173;-81
2021/06/24 06:39:50;;;;;;;10.57;9.60;;;20.50;99.90;;;;;;4934529;29;20180;-82
2021/06/24 06:42:16;;;;;;;10.13;9.13;;;20.50;99.90;;;;;;4934405;29;21083;-82
2021/06/24 06:44:42;;;;;;;9.27;8.33;;;20.60;99.90;;;;;;4951800;29;20207;-83
2021/06/24 06:47:09;;;;;;;9.77;8.97;;;20.60;99.90;;;;;;5001314;28;20642;-83
2021/06/24 06:49:35;;;;;;;9.37;8.40;;;20.60;99.90;;;;;;4952067;29;20585;-83
2021/06/24 06:52:00;;;;;;;8.83;8.00;;;20.70;99.90;;;;;;4911215;29;20185;-83
2021/06/24 06:54:26;;;;;;;10.87;9.93;;;20.70;99.90;;;;;;4952032;28;20185;-83
2021/06/24 06:56:52;;;;;;;10.27;9.40;;;20.70;99.90;;;;;;4951596;29;20626;-83
2021/06/24 06:59:18;;;;;;;10.43;9.60;;;20.70;99.90;;;;;;4952966;29;20180;-82
2021/06/24 07:01:43;;;;;;;8.77;7.87;;;20.80;99.90;;;;;;4975871;28;20529;-82
2021/06/24 07:04:09;;;;;;;10.77;9.80;;;20.80;99.90;;;;;;4963100;28;20582;-83
2021/06/24 07:06:35;;;;;;;9.13;8.33;;;20.80;99.90;;;;;;4959054;28;20204;-81
2021/06/24 07:09:01;;;;;;;10.23;9.30;;;20.90;99.90;;;;;;4984216;28;20592;-82
2021/06/24 07:11:27;;;;;;;9.67;8.97;;;20.90;99.90;;;;;;4980407;28;20547;-82
2021/06/24 07:13:53;;;;;;;9.27;8.37;;;21.00;99.90;;;;;;4970786;28;20602;-82
2021/06/24 07:16:19;;;;;;;9.23;8.33;;;21.10;99.90;;;;;;5005078;28;20204;-82
2021/06/24 07:18:45;;;;;;;10.50;8.53;;;21.10;99.90;;;;;;4951086;29;20694;-81
2021/06/24 07:21:12;;;;;;;9.93;9.03;;;21.20;99.90;;;;;;5018027;28;20635;-82
2021/06/24 07:23:38;;;;;;;11.30;8.50;;;21.30;99.90;;;;;;4983683;28;20631;-81
2021/06/24 07:26:04;;;;;;;11.90;9.47;;;21.30;99.90;;;;;;5013671;28;21369;-80
2021/06/24 07:28:29;;;;;;;10.57;9.40;;;21.40;99.90;;;;;;4981298;28;20576;-81
2021/06/24 07:30:55;;;;;;;10.87;9.83;;;21.40;99.90;;;;;;5000981;28;20702;-82
2021/06/24 07:33:21;;;;;;;10.30;8.20;;;21.50;99.90;;;;;;5017113;28;20176;-81
2021/06/24 07:35:47;;;;;;;9.50;8.17;;;21.50;99.90;;;;;;4951039;29;20687;-82
2021/06/24 07:38:13;;;;;;;10.40;9.60;;;21.50;99.90;;;;;;5000563;28;20675;-82
2021/06/24 07:40:40;;;;;;;9.07;8.23;;;21.50;99.90;;;;;;5016756;28;20208;-82
2021/06/24 07:43:06;;;;;;;10.27;9.27;;;21.50;99.90;;;;;;4950793;28;20571;-82
2021/06/24 07:45:33;;;;;;;11.30;10.30;;;21.50;99.90;;;;;;5016812;28;20722;-82
2021/06/24 07:47:59;;;;;;;10.30;9.27;;;21.60;99.90;;;;;;4951022;28;20591;-82
2021/06/24 07:50:25;;;;;;;10.70;9.70;;;21.60;99.90;;;;;;4951171;29;20572;-82
2021/06/24 07:52:50;;;;;;;12.93;8.30;;;21.70;99.90;;;;;;5016915;28;20588;-82
2021/06/24 07:55:16;;;;;;;10.97;9.97;;;21.70;99.90;;;;;;5016611;28;20219;-82
2021/06/24 07:57:43;;;;;;;11.50;10.50;;;21.80;99.90;;;;;;5000091;28;20184;-82
2021/06/24 08:00:10;;;;;;;11.13;10.23;;;21.90;99.90;;;;;;5016580;28;20176;-82
2021/06/24 08:02:43;;;;;;;10.30;9.40;;;22.00;99.90;;;;;;4950798;29;20970;-81
2021/06/24 08:05:16;;;;;;;10.93;9.80;;;22.00;99.90;;;;;;5017751;28;20603;-81
2021/06/24 08:07:45;;;;;;;12.37;11.40;;;22.20;99.90;;;;;;4951285;28;20584;-81
2021/06/24 08:10:11;;;;;;;11.47;10.47;;;22.20;99.90;;;;;;4950798;28;20584;-81
2021/06/24 08:12:40;;;;;;;10.87;10.00;;;22.30;99.90;;;;;;5017257;28;20584;-82
2021/06/24 08:15:07;;;;;;;10.53;9.53;;;22.40;99.90;;;;;;5016224;28;20971;-82
2021/06/24 08:17:33;;;;;;;11.10;9.97;;;22.50;99.90;;;;;;5017085;28;20905;-82
2021/06/24 08:19:58;;;;;;;10.43;9.57;;;22.60;99.90;;;;;;5016407;28;20572;-82
2021/06/24 08:22:24;;;;;;;10.77;9.77;;;22.70;99.90;;;;;;5016708;28;20631;-82
2021/06/24 08:24:51;;;;;;;12.00;10.80;;;22.90;99.90;;;;;;4933335;28;20297;-82
2021/06/24 08:27:17;;;;;;;12.83;11.73;;;23.10;99.90;;;;;;5017364;28;20242;-82
2021/06/24 08:29:42;;;;;;;10.27;9.27;;;23.20;99.90;;;;;;4950756;28;20568;-83
2021/06/24 08:32:08;;;;;;;9.23;8.43;;;23.40;99.90;;;;;;5000757;28;20596;-82
2021/06/24 08:34:34;;;;;;;11.00;10.03;;;23.50;99.90;;;;;;5016587;28;20176;-83
2021/06/24 08:37:00;;;;;;;10.67;9.67;;;23.60;99.90;;;;;;5021158;28;20790;-82
2021/06/24 08:39:25;;;;;;;10.97;9.97;;;23.80;99.90;;;;;;4954972;28;20586;-82
2021/06/24 08:41:51;;;;;;;9.27;8.57;;;23.90;99.90;;;;;;5023052;28;20235;-82
2021/06/24 08:44:18;;;;;;;13.60;11.87;;;24.00;99.90;;;;;;4950603;29;20185;-82
2021/06/24 08:46:44;;;;;;;11.00;9.90;;;24.10;99.90;;;;;;4946870;29;20591;-83
2021/06/24 08:49:10;;;;;;;11.60;10.43;;;24.20;99.90;;;;;;4964476;29;20591;-82
2021/06/24 08:51:36;;;;;;;10.97;9.60;;;24.40;99.90;;;;;;4963958;29;20596;-82
2021/06/24 08:54:02;;;;;;;10.43;9.60;;;24.60;99.90;;;;;;5000299;28;20601;-82
2021/06/24 08:56:29;;;;;;;11.10;10.10;;;24.80;99.90;;;;;;4957372;28;20196;-82
2021/06/24 08:58:56;;;;;;;11.53;10.43;;;25.00;99.90;;;;;;4987836;28;20660;-82
2021/06/24 09:01:54;;;;;;;11.40;10.43;;;25.30;99.90;;;;;;4965744;29;20639;-81
2021/06/24 09:04:23;;;;;;;10.67;9.67;;;25.40;99.90;;;;;;5006236;28;20588;-83
2021/06/24 09:06:50;;;;;;;11.73;10.63;;;25.50;99.90;;;;;;5012345;28;20576;-81
2021/06/24 09:09:32;;;;;;;11.07;10.17;;;25.60;99.90;;;;;;4960814;28;20590;-79
2021/06/24 09:12:02;;;;;;;12.40;11.40;;;25.60;99.90;;;;;;4970878;28;20595;-78
2021/06/24 09:14:39;;;;;;;10.90;10.10;;;25.50;99.90;;;;;;4964545;29;20598;-79
2021/06/24 09:17:05;;;;;;;8.70;8.00;;;25.30;99.90;;;;;;4974636;28;20619;-81
2021/06/24 09:19:31;;;;;;;10.23;9.43;;;25.10;99.90;;;;;;4967278;28;20614;-78
2021/06/24 09:22:01;;;;;;;12.07;10.87;;;25.10;99.90;;;;;;5006151;28;21238;-79
2021/06/24 09:24:30;;;;;;;10.87;10.03;;;25.00;99.90;;;;;;4962819;28;20588;-80
2021/06/24 09:26:58;;;;;;;11.23;10.13;;;24.90;99.90;;;;;;4958892;28;20608;-79
2021/06/24 09:29:25;;;;;;;12.00;10.80;;;25.00;99.90;;;;;;4958416;28;20588;-79
2021/06/24 09:31:53;;;;;;;12.53;11.50;;;25.00;99.90;;;;;;4985409;28;20600;-80
2021/06/24 09:34:19;;;;;;;10.97;9.97;;;25.10;99.90;;;;;;4974101;28;20687;-79
2021/06/24 09:36:48;;;;;;;11.53;10.60;;;25.20;99.90;;;;;;4979082;28;20584;-81
2021/06/24 09:39:27;;;;;;;10.90;10.00;;;25.40;99.90;;;;;;4960416;28;20738;-79
2021/06/24 09:42:01;;;;;;;11.40;10.30;;;25.60;99.90;;;;;;4954438;28;21489;-80
2021/06/24 09:44:26;;;;;;;9.50;8.30;;;26.00;99.90;;;;;;4962879;29;20584;-79
2021/06/24 09:46:53;;;;;;;12.60;11.50;;;26.40;99.90;;;;;;4960911;28;20573;-80
2021/06/24 09:49:58;;;;;;;13.33;12.10;;;26.70;99.90;;;;;;4956976;29;20710;-80
2021/06/24 09:52:25;;;;;;;13.90;12.80;;;27.00;99.90;;;;;;4950356;28;20604;-79
2021/06/24 09:55:03;;;;;;;13.70;12.50;;;27.30;99.90;;;;;;4961008;29;20625;-78
2021/06/24 09:57:29;;;;;;;13.13;12.13;;;27.30;99.90;;;;;;4950017;28;20576;-80
2021/06/24 09:59:55;;;;;;;13.03;11.90;;;27.30;99.90;;;;;;4958323;28;20667;-81
2021/06/24 10:02:21;;;;;;;12.03;11.03;;;27.20;99.90;;;;;;5028414;28;20208;-81
2021/06/24 10:04:48;;;;;;;10.73;9.97;;;27.20;99.90;;;;;;4984038;28;20267;-80
2021/06/24 10:07:16;;;;;;;9.90;8.50;;;27.10;99.90;;;;;;4997065;28;20606;-80
2021/06/24 10:09:44;;;;;;;8.73;7.93;;;27.10;99.90;;;;;;5040745;28;20644;-80
2021/06/24 10:12:16;;;;;;;8.67;7.87;;;27.10;99.90;;;;;;5020783;28;21093;-81
2021/06/24 10:14:44;;;;;;;8.67;7.77;;;27.00;99.90;;;;;;5018980;28;20626;-81
2021/06/24 10:17:10;;;;;;;7.70;7.10;;;27.10;99.90;;;;;;5034721;28;20572;-80
2021/06/24 10:19:41;;;;;;;9.60;8.80;;;27.20;99.90;;;;;;5032779;28;20896;-80
2021/06/24 10:22:19;;;;;;;9.37;7.50;;;27.30;99.90;;;;;;5017675;28;20209;-81
2021/06/24 10:25:10;;;;;;;7.70;7.10;;;27.30;99.90;;;;;;5033030;28;20612;-80
2021/06/24 10:27:38;;;;;;;7.27;6.67;;;27.30;99.90;;;;;;5018594;28;20568;-80
2021/06/24 10:30:09;;;;;;;8.50;7.80;;;27.30;99.90;;;;;;5001513;28;21116;-80
2021/06/24 10:32:35;;;;;;;11.63;10.83;;;27.30;99.90;;;;;;5033250;28;20932;-80
2021/06/24 10:35:06;;;;;;;8.93;8.10;;;27.20;99.90;;;;;;5038688;28;20604;-80
2021/06/24 10:37:34;;;;;;;9.07;8.37;;;27.20;99.90;;;;;;5015931;28;20913;-80
2021/06/24 10:40:25;;;;;;;8.33;6.87;;;27.10;99.90;;;;;;4937830;28;20588;-75
2021/06/24 10:42:53;;;;;;;7.17;6.50;;;27.10;99.90;;;;;;4949884;29;20603;-75
2021/06/24 10:45:19;;;;;;;7.23;6.63;;;27.00;99.90;;;;;;4934078;28;20644;-75
2021/06/24 10:47:45;;;;;;;7.80;6.70;;;26.90;99.90;;;;;;4942401;29;20599;-75
2021/06/24 10:50:27;;;;;;;6.80;6.20;;;26.80;99.90;;;;;;5016523;28;20565;-75
2021/06/24 10:52:53;;;;;;;5.70;5.17;;;26.70;99.90;;;;;;4933557;29;20204;-76
2021/06/24 10:55:34;;;;;;;6.90;6.30;;;26.70;99.90;;;;;;4950951;28;20623;-75
2021/06/24 10:58:13;;;;;;;4.97;4.57;;;26.70;99.90;;;;;;4950210;29;20604;-76
2021/06/24 11:00:45;;;;;;;6.13;5.53;;;26.70;99.90;;;;;;4933557;29;21045;-76
2021/06/24 11:03:13;;;;;;;5.53;4.67;;;26.70;99.90;;;;;;4950780;29;20650;-76
2021/06/24 11:05:44;;;;;;;5.93;5.43;;;26.80;99.90;;;;;;4950870;29;20671;-76
2021/06/24 11:08:13;;;;;;;6.10;5.47;;;26.80;99.90;;;;;;4949571;29;20583;-76
2021/06/24 11:11:03;;;;;;;10.20;6.30;;;26.80;99.90;;;;;;4950027;28;21011;-75
2021/06/24 11:13:35;;;;;;;4.60;4.17;;;26.80;99.90;;;;;;4955872;28;20618;-76
2021/06/24 11:16:24;;;;;;;5.40;4.90;;;27.00;99.90;;;;;;4948789;29;20608;-76
2021/06/24 11:19:08;;;;;;;5.33;4.90;;;27.10;99.90;;;;;;4944509;28;20619;-76
2021/06/24 11:21:33;;;;;;;6.60;5.20;;;27.20;99.90;;;;;;4950459;29;20631;-76
2021/06/24 11:24:02;;;;;;;5.50;5.10;;;27.40;99.90;;;;;;4949156;29;20580;-76
2021/06/24 11:26:40;;;;;;;6.20;5.70;;;27.60;99.90;;;;;;4949087;28;20212;-76
2021/06/24 11:29:29;;;;;;;4.57;4.17;;;27.70;99.90;;;;;;4950460;29;20940;-76
2021/06/24 11:32:10;;;;;;;5.83;5.33;;;27.80;99.90;;;;;;4950059;28;20596;-76
2021/06/24 11:35:02;;;;;;;6.27;4.70;;;27.90;99.90;;;;;;4949932;28;20644;-76
2021/06/24 11:37:32;;;;;;;6.00;5.40;;;28.00;99.90;;;;;;4949854;28;20662;-76
2021/06/24 11:40:04;;;;;;;4.00;3.70;;;28.20;99.90;;;;;;4950260;29;20650;-76
2021/06/24 11:42:38;;;;;;;5.97;5.43;;;28.40;99.90;;;;;;4950090;29;20623;-76
2021/06/24 11:45:06;;;;;;;6.00;5.50;;;28.60;99.90;;;;;;4950479;29;20978;-76
2021/06/24 11:47:34;;;;;;;6.13;5.53;;;28.70;99.90;;;;;;4936451;29;20568;-76
2021/06/24 12:04:17;;;;;;;4.60;4.20;;;29.00;99.50;;;;;;4950191;29;20582;-76
2021/06/24 12:06:43;;;;;;;5.57;4.70;;;28.90;99.00;;;;;;4950127;29;21234;-80
2021/06/24 12:09:09;;;;;;;5.67;5.13;;;28.80;98.80;;;;;;4949005;28;20572;-80
2021/06/24 12:11:39;;;;;;;4.73;4.27;;;28.70;98.60;;;;;;4952815;29;20181;-81
2021/06/24 12:14:15;;;;;;;5.00;4.60;;;28.50;98.10;;;;;;4937056;29;20942;-80
2021/06/24 12:16:59;;;;;;;5.10;4.60;;;28.30;97.00;;;;;;4936535;29;20714;-80
2021/06/24 12:19:50;;;;;;;4.93;4.60;;;28.20;97.80;;;;;;4953195;29;20657;-80
2021/06/24 12:22:23;;;;;;;5.60;4.70;;;27.90;97.80;;;;;;4955106;29;20628;-81
2021/06/24 12:24:50;;;;;;;4.37;3.97;;;27.80;97.60;;;;;;4957677;28;20677;-80
2021/06/24 12:27:17;;;;;;;4.93;4.53;;;27.60;97.90;;;;;;4936424;29;21128;-80
2021/06/24 12:29:43;;;;;;;5.00;4.60;;;27.60;98.00;;;;;;4951682;29;20564;-79
2021/06/24 12:32:09;;;;;;;5.33;4.93;;;27.40;97.80;;;;;;4938701;28;20600;-79
2021/06/24 12:34:34;;;;;;;4.80;3.63;;;27.30;98.00;;;;;;4934595;29;20571;-80
2021/06/24 12:37:00;;;;;;;4.23;3.70;;;27.10;98.10;;;;;;4935120;29;20211;-80
2021/06/24 12:39:26;;;;;;;4.10;3.63;;;27.10;98.30;;;;;;4946012;29;20184;-80
2021/06/24 12:41:52;;;;;;;4.00;3.70;;;27.00;98.40;;;;;;4952932;29;20798;-81
2021/06/24 12:44:18;;;;;;;5.33;4.70;;;26.90;98.40;;;;;;4963629;29;20671;-80
2021/06/24 12:46:44;;;;;;;3.87;3.50;;;26.70;98.20;;;;;;4956002;28;20948;-79
2021/06/24 12:49:17;;;;;;;5.10;4.70;;;26.60;98.40;;;;;;4955662;28;20920;-79
2021/06/24 12:51:44;;;;;;;5.03;4.00;;;26.40;98.50;;;;;;5019280;28;20174;-81
2021/06/24 12:54:15;;;;;;;4.53;4.13;;;26.30;98.80;;;;;;4952565;29;20576;-81
2021/06/24 12:56:45;;;;;;;5.00;4.07;;;26.30;99.10;;;;;;5021241;28;20603;-81
2021/06/24 12:59:26;;;;;;;4.53;4.20;;;26.20;99.30;;;;;;5020456;28;20595;-80
2021/06/24 13:01:55;;;;;;;5.07;4.20;;;26.10;99.30;;;;;;5021937;28;20957;-76
2021/06/24 13:04:28;;;;;;;6.87;4.83;;;26.10;99.40;;;;;;5019213;28;20560;-75
2021/06/24 13:06:56;;;;;;;4.17;3.87;;;26.00;99.60;;;;;;4952424;29;21115;-75
2021/06/24 13:09:41;;;;;;;4.80;3.70;;;26.00;99.90;;;;;;5018325;28;20579;-75
2021/06/24 13:12:08;;;;;;;6.13;4.70;;;25.90;99.90;;;;;;5018815;28;21199;-75
2021/06/24 13:14:46;;;;;;;4.57;3.83;;;25.90;99.90;;;;;;4952430;28;20947;-75